Time;durP1;ratioP1;P1;durP2;ratioP2;P2;SDS_P1;SDS_P2;PMS_P1;PMS_P2;Temp;Humidity;BMP_temperature;BMP_pressure;BME280_temperature;BME280_humidity;BME280_pressure;Samples;Min_cycle;Max_cycle;Signal;HPM_P1;HPM_P2
2024/01/07 00:00:23;;;;;;;27.33;12.05;;;;;;;2.56;100.00;97700.78;2532583;29;20048;-88
2024/01/07 00:01:49;;;;;;;21.42;9.90;;;;;;;2.40;100.00;97698.31;2528444;29;20056;-88
2024/01/07 00:03:07;;;;;;;28.48;12.23;;;;;;;2.60;100.00;97709.34;2527520;29;20509;-90
2024/01/07 00:04:26;;;;;;;26.75;11.57;;;;;;;2.66;100.00;97709.28;2528251;29;20501;-88
2024/01/07 00:05:43;;;;;;;19.70;8.75;;;;;;;2.09;100.00;97707.97;2513177;29;20048;-88
2024/01/07 00:07:05;;;;;;;33.63;13.27;;;;;;;2.50;100.00;97700.78;2528395;29;20557;-89
2024/01/07 00:08:22;;;;;;;28.88;12.25;;;;;;;2.66;100.00;97707.59;2533969;29;20044;-88
2024/01/07 00:09:39;;;;;;;23.13;10.02;;;;;;;2.24;100.00;97710.44;2525453;29;20055;-88
2024/01/07 00:11:01;;;;;;;28.55;11.55;;;;;;;2.23;100.00;97713.03;2528008;29;20498;-88
2024/01/07 00:12:17;;;;;;;27.90;11.05;;;;;;;2.21;100.00;97707.91;2522494;29;20521;-87
2024/01/07 00:13:33;;;;;;;33.65;13.07;;;;;;;2.09;100.00;97708.81;2527948;29;20048;-88
2024/01/07 00:14:49;;;;;;;26.35;10.90;;;;;;;2.33;100.00;97708.69;2523467;29;20037;-88
2024/01/07 00:16:07;;;;;;;29.17;12.35;;;;;;;2.49;100.00;97707.72;2531079;29;20049;-88
2024/01/07 00:17:24;;;;;;;25.42;11.02;;;;;;;2.38;100.00;97722.41;2532515;29;20051;-88
2024/01/07 00:18:40;;;;;;;28.38;11.98;;;;;;;1.98;100.00;97710.63;2531962;29;20391;-88
2024/01/07 00:19:56;;;;;;;22.65;9.07;;;;;;;1.96;100.00;97709.78;2523908;29;20087;-88
2024/01/07 00:21:12;;;;;;;31.15;11.90;;;;;;;2.10;100.00;97715.72;2525425;29;20527;-87
2024/01/07 00:22:28;;;;;;;30.52;12.00;;;;;;;2.18;100.00;97715.66;2524345;29;20071;-88
2024/01/07 00:23:44;;;;;;;25.23;11.52;;;;;;;2.11;100.00;97709.69;2516498;29;20049;-88
2024/01/07 00:25:00;;;;;;;27.27;12.35;;;;;;;2.52;100.00;97714.59;2514941;29;20273;-87
2024/01/07 00:26:16;;;;;;;28.13;11.45;;;;;;;2.05;100.00;97712.28;2513260;29;20064;-88
2024/01/07 00:27:32;;;;;;;29.90;12.52;;;;;;;2.07;100.00;97714.88;2511671;29;20506;-88
2024/01/07 00:28:48;;;;;;;30.10;11.65;;;;;;;2.16;100.00;97713.97;2512994;29;20147;-88
2024/01/07 00:30:05;;;;;;;22.63;10.18;;;;;;;1.80;100.00;97708.97;2511914;29;20056;-88
2024/01/07 00:31:22;;;;;;;26.25;10.88;;;;;;;2.02;100.00;97716.59;2517034;29;20513;-88
2024/01/07 00:32:38;;;;;;;29.27;11.65;;;;;;;2.24;100.00;97714.78;2514503;29;20041;-88
2024/01/07 00:33:54;;;;;;;25.95;9.93;;;;;;;1.91;100.00;97719.25;2520340;29;20051;-89
2024/01/07 00:35:10;;;;;;;23.92;9.80;;;;;;;2.08;100.00;97720.00;2529598;29;20069;-88
2024/01/07 00:36:27;;;;;;;24.95;11.50;;;;;;;2.01;100.00;97728.66;2533985;29;20521;-88
2024/01/07 00:37:43;;;;;;;25.95;12.07;;;;;;;2.07;100.00;97726.03;2523248;29;20332;-88
2024/01/07 00:38:59;;;;;;;30.00;12.38;;;;;;;1.93;100.00;97720.97;2516144;29;20648;-88
2024/01/07 00:40:15;;;;;;;27.33;11.38;;;;;;;1.57;100.00;97727.16;2518285;29;20052;-88
2024/01/07 00:41:31;;;;;;;25.45;11.02;;;;;;;1.74;100.00;97727.94;2513679;29;20105;-88
2024/01/07 00:42:47;;;;;;;18.02;9.57;;;;;;;1.52;100.00;97737.47;2502043;29;20061;-88
2024/01/07 00:44:03;;;;;;;21.17;9.30;;;;;;;1.67;100.00;97736.53;2522683;29;20044;-88
2024/01/07 00:45:21;;;;;;;29.23;12.60;;;;;;;1.78;100.00;97729.63;2522956;29;20080;-88
2024/01/07 00:46:38;;;;;;;35.15;12.20;;;;;;;1.71;100.00;97727.94;2513421;29;20049;-89
2024/01/07 00:47:54;;;;;;;26.83;10.15;;;;;;;1.63;100.00;97734.84;2506104;29;20161;-88
2024/01/07 00:49:10;;;;;;;23.30;11.07;;;;;;;1.64;100.00;97740.00;2517162;29;20055;-88
2024/01/07 00:50:26;;;;;;;29.83;11.85;;;;;;;1.69;100.00;97734.84;2511717;29;20048;-88
2024/01/07 00:51:42;;;;;;;28.80;11.07;;;;;;;1.61;100.00;97741.75;2519336;29;20040;-88
2024/01/07 00:53:00;;;;;;;20.42;8.90;;;;;;;1.14;100.00;97741.88;2543038;29;20130;-87
2024/01/07 00:54:16;;;;;;;27.63;11.40;;;;;;;1.15;100.00;97727.22;2534293;29;20052;-88
2024/01/07 00:55:33;;;;;;;24.08;11.05;;;;;;;1.54;100.00;97740.91;2532293;29;20055;-87
2024/01/07 00:56:49;;;;;;;32.92;13.20;;;;;;;1.51;100.00;97746.91;2537516;29;20050;-88
2024/01/07 00:58:04;;;;;;;30.23;13.13;;;;;;;1.92;100.00;97739.91;2532292;29;20468;-88
2024/01/07 00:59:20;;;;;;;31.65;12.88;;;;;;;1.60;100.00;97743.44;2541049;29;20047;-88
2024/01/07 01:00:36;;;;;;;30.98;13.10;;;;;;;1.74;100.00;97737.38;2549659;29;20990;-88
2024/01/07 01:01:52;;;;;;;28.25;12.30;;;;;;;1.87;100.00;97744.22;2549657;29;20032;-90
2024/01/07 01:03:09;;;;;;;20.40;9.25;;;;;;;1.66;100.00;97742.56;2539767;29;20058;-88
2024/01/07 01:04:25;;;;;;;30.52;11.27;;;;;;;1.58;100.00;97747.75;2538473;29;20107;-88
2024/01/07 01:05:41;;;;;;;20.42;8.80;;;;;;;1.59;100.00;97748.63;2539126;29;20047;-88
2024/01/07 01:06:57;;;;;;;26.95;11.27;;;;;;;1.77;100.00;97751.13;2532952;29;20493;-88
2024/01/07 01:08:13;;;;;;;21.17;8.55;;;;;;;1.63;100.00;97750.31;2529878;29;20044;-87
2024/01/07 01:09:29;;;;;;;27.08;12.25;;;;;;;1.43;100.00;97758.13;2527757;29;20040;-88
2024/01/07 01:10:45;;;;;;;24.92;11.13;;;;;;;1.57;100.00;97750.34;2534004;29;20556;-90
2024/01/07 01:12:01;;;;;;;26.02;10.70;;;;;;;1.70;100.00;97759.78;2543329;29;20059;-88
2024/01/07 01:13:18;;;;;;;23.02;10.82;;;;;;;1.69;100.00;97760.66;2539718;29;20083;-88
2024/01/07 01:14:34;;;;;;;18.20;7.93;;;;;;;1.46;100.00;97758.97;2535869;29;20580;-88
2024/01/07 01:15:52;;;;;;;24.80;10.75;;;;;;;1.29;100.00;97768.47;2531510;29;20060;-88
2024/01/07 01:17:10;;;;;;;24.35;10.77;;;;;;;1.37;100.00;97775.34;2543810;29;20055;-88
2024/01/07 01:18:26;;;;;;;21.33;9.07;;;;;;;1.37;100.00;97761.56;2549448;29;20150;-88
2024/01/07 01:19:42;;;;;;;24.63;11.45;;;;;;;1.08;100.00;97762.47;2546151;29;20384;-87
2024/01/07 01:20:58;;;;;;;25.63;10.77;;;;;;;1.37;100.00;97766.72;2549570;29;20059;-88
2024/01/07 01:22:14;;;;;;;29.45;10.68;;;;;;;1.64;100.00;97767.53;2544938;29;20047;-88
2024/01/07 01:23:30;;;;;;;25.73;10.45;;;;;;;1.34;100.00;97772.78;2533346;29;20044;-88
2024/01/07 01:24:46;;;;;;;23.63;10.55;;;;;;;1.45;100.00;97767.59;2543676;29;20043;-88
2024/01/07 01:26:02;;;;;;;21.70;10.60;;;;;;;1.30;100.00;97776.19;2539588;29;20080;-87
2024/01/07 01:27:19;;;;;;;20.50;9.13;;;;;;;0.91;100.00;97771.09;2533763;29;20071;-87
2024/01/07 01:28:35;;;;;;;17.63;8.27;;;;;;;0.93;100.00;97766.78;2529485;29;20047;-87
2024/01/07 01:29:51;;;;;;;27.95;11.88;;;;;;;1.19;100.00;97777.94;2531316;29;20512;-87
2024/01/07 01:31:07;;;;;;;25.83;10.88;;;;;;;1.23;100.00;97772.78;2536849;29;20040;-88
2024/01/07 01:32:23;;;;;;;26.38;11.25;;;;;;;1.31;100.00;97779.66;2543338;29;20040;-88
2024/01/07 01:33:39;;;;;;;23.40;10.63;;;;;;;1.37;100.00;97780.50;2535863;29;20044;-87
2024/01/07 01:34:55;;;;;;;23.60;11.48;;;;;;;1.37;100.00;97782.19;2537622;29;20046;-88
2024/01/07 01:36:12;;;;;;;22.77;10.90;;;;;;;1.26;100.00;97777.94;2549391;29;20043;-88
2024/01/07 01:37:28;;;;;;;26.35;11.13;;;;;;;1.44;100.00;97783.94;2535136;29;20163;-88
2024/01/07 01:38:44;;;;;;;24.80;10.77;;;;;;;1.18;100.00;97789.09;2532016;29;20161;-89
2024/01/07 01:40:00;;;;;;;24.02;10.20;;;;;;;0.93;100.00;97773.66;2523546;29;20055;-88
2024/01/07 01:41:16;;;;;;;21.95;9.63;;;;;;;0.76;100.00;97782.22;2531237;29;20040;-88
2024/01/07 01:42:32;;;;;;;24.88;11.10;;;;;;;1.10;100.00;97787.41;2545100;29;20074;-88
2024/01/07 01:43:48;;;;;;;25.77;12.30;;;;;;;1.25;100.00;97783.94;2545832;29;20039;-87
2024/01/07 01:45:05;;;;;;;23.27;10.02;;;;;;;1.09;100.00;97789.97;2540381;29;20046;-88
2024/01/07 01:46:21;;;;;;;23.17;10.73;;;;;;;1.22;100.00;97783.09;2543539;29;20086;-88
2024/01/07 01:47:37;;;;;;;24.55;10.82;;;;;;;1.09;100.00;97793.41;2537583;29;20564;-87
2024/01/07 01:48:53;;;;;;;27.38;10.77;;;;;;;1.00;100.00;97787.41;2523776;29;20052;-88
2024/01/07 01:50:10;;;;;;;24.15;10.80;;;;;;;0.79;100.00;97797.72;2528144;29;20050;-88
2024/01/07 01:51:26;;;;;;;17.95;8.65;;;;;;;0.83;100.00;97798.56;2531983;29;20055;-88
2024/01/07 01:52:44;;;;;;;22.33;9.85;;;;;;;0.72;100.00;97795.97;2532755;29;20052;-88
2024/01/07 01:54:02;;;;;;;25.85;10.57;;;;;;;0.78;100.00;97789.97;2543474;29;20044;-88
2024/01/07 01:55:19;;;;;;;25.05;11.02;;;;;;;0.95;100.00;97796.00;2535659;29;20099;-87
2024/01/07 01:56:35;;;;;;;22.92;10.30;;;;;;;0.65;100.00;97800.25;2539174;29;20040;-88
2024/01/07 01:57:52;;;;;;;24.50;11.27;;;;;;;0.64;100.00;97793.41;2523342;29;20522;-88
2024/01/07 01:59:12;;;;;;;21.52;9.85;;;;;;;0.77;100.00;97794.28;2527713;29;20099;-88
2024/01/07 02:00:31;;;;;;;24.15;10.40;;;;;;;0.75;100.00;97798.56;2528877;29;20040;-88
2024/01/07 02:01:47;;;;;;;19.90;10.20;;;;;;;0.65;100.00;97784.81;2538553;29;20040;-88
2024/01/07 02:03:03;;;;;;;25.27;9.70;;;;;;;0.62;100.00;97795.13;2527294;29;20120;-88
2024/01/07 02:04:19;;;;;;;22.10;11.05;;;;;;;0.33;100.00;97787.31;2526985;29;20111;-88
2024/01/07 02:05:35;;;;;;;20.55;9.05;;;;;;;0.50;100.00;97790.81;2533059;29;20086;-88
2024/01/07 02:06:51;;;;;;;22.02;9.98;;;;;;;0.58;100.00;97788.25;2528639;29;20049;-88
2024/01/07 02:08:07;;;;;;;21.58;9.60;;;;;;;0.50;100.00;97790.81;2537329;29;20059;-88
2024/01/07 02:09:23;;;;;;;26.88;10.07;;;;;;;0.47;100.00;97801.09;2529117;29;20040;-88
2024/01/07 02:10:39;;;;;;;22.85;10.38;;;;;;;0.39;100.00;97795.91;2536308;29;20082;-88
2024/01/07 02:12:03;;;;;;;24.50;10.55;;;;;;;0.75;100.00;97798.56;2538041;29;20588;-88
2024/01/07 02:13:19;;;;;;;20.13;9.18;;;;;;;0.39;100.00;97787.34;2529397;29;20037;-88
2024/01/07 02:14:35;;;;;;;25.55;10.68;;;;;;;0.58;100.00;97807.97;2533328;29;20052;-88
2024/01/07 02:15:51;;;;;;;24.45;9.50;;;;;;;0.45;100.00;97807.13;2538738;29;20048;-87
2024/01/07 02:17:07;;;;;;;19.98;10.35;;;;;;;0.39;100.00;97811.38;2543134;29;20058;-88
2024/01/07 02:18:23;;;;;;;21.50;8.43;;;;;;;0.50;100.00;97810.53;2539244;29;20058;-88
2024/01/07 02:19:39;;;;;;;21.13;9.77;;;;;;;0.28;100.00;97811.34;2543400;29;20076;-88
2024/01/07 02:20:55;;;;;;;24.10;10.50;;;;;;;0.49;100.00;97806.25;2544844;29;20571;-87
2024/01/07 02:22:11;;;;;;;21.63;8.88;;;;;;;0.37;100.00;97814.81;2535994;29;20082;-88
2024/01/07 02:23:27;;;;;;;19.67;9.48;;;;;;;0.48;100.00;97810.53;2539234;29;20032;-88
2024/01/07 02:24:43;;;;;;;25.30;10.05;;;;;;;0.60;100.00;97808.84;2539570;29;20035;-89
2024/01/07 02:25:59;;;;;;;22.27;9.93;;;;;;;0.62;100.00;97805.41;2548871;29;20119;-88
2024/01/07 02:27:15;;;;;;;19.00;8.32;;;;;;;0.47;100.00;97811.38;2542921;29;20044;-88
2024/01/07 02:28:32;;;;;;;20.60;9.63;;;;;;;0.82;100.00;97807.16;2535333;29;20055;-88
2024/01/07 02:29:48;;;;;;;16.58;7.93;;;;;;;0.30;100.00;97802.78;2528490;29;20139;-88
2024/01/07 02:31:04;;;;;;;14.70;8.20;;;;;;;0.28;100.00;97810.50;2535952;29;20082;-88
2024/01/07 02:32:21;;;;;;;15.05;7.25;;;;;;;0.09;100.00;97814.72;2539054;29;20050;-88
2024/01/07 02:33:37;;;;;;;22.10;10.60;;;;;;;0.54;100.00;97807.97;2533304;29;20051;-88
2024/01/07 02:34:53;;;;;;;21.45;9.52;;;;;;;0.45;100.00;97807.97;2523403;29;20056;-88
2024/01/07 02:36:09;;;;;;;22.40;10.73;;;;;;;0.59;100.00;97802.84;2527585;29;20059;-88
2024/01/07 02:37:25;;;;;;;23.40;9.95;;;;;;;0.70;100.00;97814.03;2542786;29;20053;-89
2024/01/07 02:38:41;;;;;;;16.90;8.02;;;;;;;0.40;100.00;97805.38;2539561;29;20051;-88
2024/01/07 02:39:57;;;;;;;25.55;9.80;;;;;;;0.41;100.00;97803.66;2539024;29;20052;-88
2024/01/07 02:41:13;;;;;;;22.73;9.88;;;;;;;0.47;100.00;97800.25;2536529;29;20075;-88
2024/01/07 02:42:29;;;;;;;18.00;7.72;;;;;;;0.36;100.00;97800.22;2528530;29;20107;-88
2024/01/07 02:43:45;;;;;;;20.73;9.80;;;;;;;0.58;100.00;97803.72;2526985;29;20048;-88
2024/01/07 02:45:02;;;;;;;22.15;9.60;;;;;;;0.72;100.00;97800.28;2528442;29;20139;-88
2024/01/07 02:46:20;;;;;;;22.45;9.32;;;;;;;0.56;100.00;97806.25;2523472;29;20394;-88
2024/01/07 02:47:36;;;;;;;17.95;9.48;;;;;;;0.31;100.00;97815.66;2532997;29;20071;-88
2024/01/07 02:48:52;;;;;;;13.20;7.38;;;;;;;0.30;100.00;97813.94;2536280;29;20584;-88
2024/01/07 02:50:08;;;;;;;19.52;9.77;;;;;;;0.34;100.00;97807.94;2529292;29;20189;-88
2024/01/07 02:51:24;;;;;;;13.25;6.30;;;;;;;0.10;100.00;97807.00;2542816;29;20042;-88
2024/01/07 02:52:40;;;;;;;23.00;9.63;;;;;;;0.51;100.00;97810.56;2545291;29;20552;-87
2024/01/07 02:53:56;;;;;;;24.65;10.48;;;;;;;0.51;100.00;97807.97;2525071;29;20052;-90
2024/01/07 02:55:12;;;;;;;20.42;9.82;;;;;;;0.36;100.00;97813.94;2536402;29;20449;-88
2024/01/07 02:56:28;;;;;;;16.90;8.18;;;;;;;0.30;100.00;97803.66;2544689;29;20052;-87
2024/01/07 02:57:43;;;;;;;20.95;9.05;;;;;;;0.26;100.00;97807.91;2548399;29;20432;-88
2024/01/07 02:59:00;;;;;;;23.48;10.40;;;;;;;0.54;100.00;97807.09;2538674;29;20048;-88
2024/01/07 03:00:17;;;;;;;13.07;7.03;;;;;;;0.37;100.00;97814.81;2537123;29;20060;-88
2024/01/07 03:01:39;;;;;;;18.85;9.38;;;;;;;0.47;100.00;97803.66;2538630;29;20308;-88
2024/01/07 03:02:55;;;;;;;15.18;8.10;;;;;;;0.43;100.00;97807.09;2543704;29;20116;-88
2024/01/07 03:04:15;;;;;;;18.45;9.45;;;;;;;0.12;100.00;97813.00;2548234;29;20055;-87
2024/01/07 03:05:32;;;;;;;18.10;8.85;;;;;;;0.05;100.00;97808.69;2549034;29;20048;-88
2024/01/07 03:06:50;;;;;;;17.48;8.77;;;;;;;0.03;100.00;97805.25;2539001;29;20086;-89
2024/01/07 03:08:06;;;;;;;16.38;8.45;;;;;;;0.17;100.00;97804.47;2523041;29;20428;-88
2024/01/07 03:09:23;;;;;;;17.95;8.10;;;;;;;0.30;100.00;97806.22;2518026;29;20056;-88
2024/01/07 03:10:39;;;;;;;21.02;9.02;;;;;;;0.41;100.00;97809.66;2532459;29;20103;-88
2024/01/07 03:11:55;;;;;;;17.75;8.30;;;;;;;0.55;100.00;97806.25;2543904;29;20036;-88
2024/01/07 03:13:12;;;;;;;15.27;7.50;;;;;;;0.66;100.00;97803.72;2540068;29;20036;-88
2024/01/07 03:14:28;;;;;;;20.55;9.20;;;;;;;0.50;100.00;97806.28;2540402;29;20056;-88
2024/01/07 03:15:44;;;;;;;19.83;9.43;;;;;;;0.77;100.00;97804.59;2538427;29;20521;-88
2024/01/07 03:17:00;;;;;;;21.25;9.15;;;;;;;0.51;100.00;97807.09;2538098;29;20436;-89
2024/01/07 03:18:16;;;;;;;20.33;9.32;;;;;;;0.60;100.00;97809.72;2531624;29;20083;-88
2024/01/07 03:19:32;;;;;;;20.55;9.85;;;;;;;0.56;100.00;97810.56;2523654;29;20056;-88
2024/01/07 03:20:48;;;;;;;17.88;8.75;;;;;;;0.47;100.00;97813.13;2523289;29;20136;-88
2024/01/07 03:22:07;;;;;;;17.38;8.23;;;;;;;0.78;100.00;97811.47;2526298;29;20820;-88
2024/01/07 03:23:22;;;;;;;18.48;9.20;;;;;;;0.71;100.00;97814.88;2523190;29;20059;-88
2024/01/07 03:24:38;;;;;;;22.23;10.00;;;;;;;0.65;100.00;97812.31;2522185;29;20470;-88
2024/01/07 03:25:58;;;;;;;14.73;6.55;;;;;;;0.11;100.00;97811.28;2536431;29;20047;-88
2024/01/07 03:27:14;;;;;;;12.13;6.40;;;;;;;0.09;100.00;97819.88;2528752;29;20058;-87
2024/01/07 03:28:30;;;;;;;15.75;7.35;;;;;;;0.29;100.00;97817.38;2532933;29;20154;-88
2024/01/07 03:29:46;;;;;;;20.00;9.25;;;;;;;0.25;100.00;97819.06;2533953;29;20044;-90
2024/01/07 03:31:08;;;;;;;20.95;7.55;;;;;;;0.32;100.00;97821.66;2542287;29;20106;-88
2024/01/07 03:32:24;;;;;;;14.25;7.20;;;;;;;0.00;100.00;97818.13;2528910;29;20107;-88
2024/01/07 03:33:41;;;;;;;16.10;7.35;;;;;;;0.11;100.00;97819.00;2532879;29;20039;-88
2024/01/07 03:34:57;;;;;;;18.65;8.77;;;;;;;0.04;100.00;97816.41;2542324;29;20047;-88
2024/01/07 03:36:14;;;;;;;15.95;8.25;;;;;;;-0.04;100.00;97816.38;2547944;29;20067;-88
2024/01/07 03:37:31;;;;;;;20.13;9.38;;;;;;;0.09;100.00;97819.88;2528920;29;20135;-89
2024/01/07 03:38:47;;;;;;;16.67;7.57;;;;;;;0.19;100.00;97818.19;2527017;29;20040;-89
2024/01/07 03:40:03;;;;;;;16.25;8.68;;;;;;;-0.01;100.00;97821.53;2532523;29;20082;-88
2024/01/07 03:41:20;;;;;;;18.70;7.95;;;;;;;0.27;100.00;97824.22;2548313;29;20056;-88
2024/01/07 03:42:36;;;;;;;17.48;7.85;;;;;;;0.06;100.00;97828.44;2534367;29;20044;-88
2024/01/07 03:43:53;;;;;;;16.88;7.70;;;;;;;-0.50;100.00;97819.56;2541753;29;20055;-88
2024/01/07 03:45:09;;;;;;;14.50;6.35;;;;;;;-0.32;100.00;97824.84;2543978;29;20052;-89
2024/01/07 03:46:25;;;;;;;17.02;7.72;;;;;;;-0.07;100.00;97827.53;2533521;29;20544;-89
2024/01/07 03:47:41;;;;;;;17.17;7.47;;;;;;;-0.29;100.00;97821.41;2532331;29;20039;-88
2024/01/07 03:48:57;;;;;;;24.83;9.50;;;;;;;-0.29;100.00;97823.97;2528355;29;20052;-88
2024/01/07 03:50:13;;;;;;;21.95;9.10;;;;;;;-0.12;100.00;97831.78;2532406;29;20400;-88
2024/01/07 03:51:29;;;;;;;16.63;7.07;;;;;;;-0.11;100.00;97832.66;2532508;29;20044;-88
2024/01/07 03:52:47;;;;;;;20.60;9.00;;;;;;;-0.15;100.00;97832.63;2525633;29;20167;-88
2024/01/07 03:54:05;;;;;;;10.07;5.60;;;;;;;0.02;100.00;97838.72;2519377;29;20032;-88
2024/01/07 03:55:21;;;;;;;14.30;6.40;;;;;;;-0.07;100.00;97845.56;2523780;29;20048;-88
2024/01/07 03:56:38;;;;;;;18.77;7.95;;;;;;;-0.19;100.00;97840.34;2521171;29;20048;-88
2024/01/07 03:57:54;;;;;;;14.98;7.00;;;;;;;0.11;100.00;97839.59;2524770;29;20040;-88
2024/01/07 03:59:09;;;;;;;13.07;6.68;;;;;;;0.06;100.00;97836.16;2518252;29;20055;-90
2024/01/07 04:00:25;;;;;;;13.38;6.10;;;;;;;-0.54;100.00;97840.97;2527076;29;20068;-88
2024/01/07 04:01:41;;;;;;;20.05;8.88;;;;;;;-0.07;100.00;97839.53;2528518;29;20056;-89
2024/01/07 04:02:57;;;;;;;16.75;8.07;;;;;;;-0.08;100.00;97848.94;2511411;29;20053;-88
2024/01/07 04:04:13;;;;;;;13.85;6.75;;;;;;;-0.52;100.00;97845.28;2511559;29;20041;-89
2024/01/07 04:05:29;;;;;;;18.90;8.23;;;;;;;-0.26;100.00;97839.44;2523201;29;20505;-90
2024/01/07 04:06:45;;;;;;;19.23;8.10;;;;;;;-0.26;100.00;97847.16;2521558;29;20049;-88
2024/01/07 04:08:02;;;;;;;16.23;8.57;;;;;;;-0.13;100.00;97845.50;2523613;29;20052;-89
2024/01/07 04:09:20;;;;;;;17.73;8.93;;;;;;;0.03;100.00;97843.88;2534110;29;20593;-88
2024/01/07 04:10:36;;;;;;;17.45;7.13;;;;;;;-0.17;100.00;97851.50;2533815;29;20045;-88
2024/01/07 04:11:52;;;;;;;15.38;7.57;;;;;;;-0.33;100.00;97853.97;2529329;29;20223;-88
2024/01/07 04:13:08;;;;;;;16.52;7.65;;;;;;;-0.17;100.00;97847.19;2528114;29;20058;-88
2024/01/07 04:14:27;;;;;;;13.40;6.68;;;;;;;-0.20;100.00;97846.34;2523262;29;20092;-88
2024/01/07 04:15:43;;;;;;;17.08;7.15;;;;;;;-0.44;100.00;97859.03;2522074;29;20053;-88
2024/01/07 04:16:59;;;;;;;17.10;6.68;;;;;;;-0.55;100.00;97847.84;2525378;29;20502;-88
2024/01/07 04:18:15;;;;;;;19.63;9.73;;;;;;;-0.36;100.00;97856.50;2518165;29;20049;-88
2024/01/07 04:19:31;;;;;;;18.00;7.65;;;;;;;-0.21;100.00;97860.03;2517284;29;20089;-88
2024/01/07 04:20:48;;;;;;;23.83;9.38;;;;;;;-0.25;100.00;97853.16;2532437;29;20040;-88
2024/01/07 04:22:04;;;;;;;18.45;8.07;;;;;;;-0.28;100.00;97853.97;2522994;29;20051;-88
2024/01/07 04:23:20;;;;;;;21.67;9.27;;;;;;;-0.04;100.00;97857.56;2527331;29;20052;-88
2024/01/07 04:24:36;;;;;;;19.20;8.95;;;;;;;0.02;100.00;97857.59;2518855;29;20479;-88
2024/01/07 04:25:52;;;;;;;17.38;7.70;;;;;;;0.08;100.00;97856.78;2520403;29;20045;-88
2024/01/07 04:27:08;;;;;;;16.77;8.07;;;;;;;-0.11;100.00;97854.09;2534443;29;20044;-88
2024/01/07 04:28:24;;;;;;;13.63;7.07;;;;;;;-0.32;100.00;97865.13;2528952;29;20033;-88
2024/01/07 04:29:40;;;;;;;17.27;8.50;;;;;;;-0.51;100.00;97857.28;2511755;29;20064;-87
2024/01/07 04:30:56;;;;;;;14.40;6.50;;;;;;;-0.33;100.00;97866.84;2521922;29;20048;-88
2024/01/07 04:32:12;;;;;;;21.88;9.18;;;;;;;-0.05;100.00;97867.00;2523901;29;20072;-88
2024/01/07 04:33:28;;;;;;;17.25;7.57;;;;;;;-0.27;100.00;97862.56;2526640;29;20048;-91
2024/01/07 04:34:44;;;;;;;24.42;10.10;;;;;;;-0.08;100.00;97866.97;2522269;29;20429;-89
2024/01/07 04:36:00;;;;;;;22.35;9.70;;;;;;;-0.07;100.00;97871.28;2516841;29;20509;-88
2024/01/07 04:37:16;;;;;;;22.23;8.95;;;;;;;-0.53;100.00;97868.41;2524218;29;20054;-88
2024/01/07 04:38:32;;;;;;;20.70;10.20;;;;;;;-0.01;100.00;97873.00;2513720;29;20093;-88
2024/01/07 04:39:48;;;;;;;19.95;9.48;;;;;;;-0.09;100.00;97878.09;2513444;29;20043;-88
2024/01/07 04:41:07;;;;;;;20.40;9.75;;;;;;;0.04;100.00;97873.03;2515684;29;20097;-88
2024/01/07 04:42:22;;;;;;;13.00;5.97;;;;;;;-0.20;100.00;97878.06;2526267;29;20043;-89
2024/01/07 04:43:38;;;;;;;19.55;9.13;;;;;;;-0.15;100.00;97878.94;2525659;29;20849;-88
2024/01/07 04:44:54;;;;;;;18.95;8.68;;;;;;;0.01;100.00;97884.19;2520286;29;20045;-88
2024/01/07 04:46:11;;;;;;;17.05;8.05;;;;;;;-0.18;100.00;97886.63;2517027;29;20049;-88
2024/01/07 04:47:31;;;;;;;18.35;8.82;;;;;;;-0.18;100.00;97884.06;2519587;29;20144;-88
2024/01/07 04:48:47;;;;;;;22.92;9.88;;;;;;;-0.23;100.00;97888.34;2527590;29;20099;-88
2024/01/07 04:50:04;;;;;;;20.08;8.23;;;;;;;-0.31;100.00;97890.84;2523474;29;20044;-88
2024/01/07 04:51:20;;;;;;;21.25;10.25;;;;;;;-0.18;100.00;97894.34;2506789;29;20072;-88
2024/01/07 04:52:36;;;;;;;28.38;10.45;;;;;;;-0.28;100.00;97897.72;2520341;29;20059;-88
2024/01/07 04:53:54;;;;;;;16.88;8.73;;;;;;;-0.61;100.00;97896.63;2513641;29;20108;-87
2024/01/07 04:55:10;;;;;;;15.48;7.97;;;;;;;-0.60;100.00;97900.91;2517678;29;20139;-88
2024/01/07 04:56:26;;;;;;;19.02;8.82;;;;;;;-0.50;100.00;97905.28;2513485;29;20151;-88
2024/01/07 04:57:42;;;;;;;23.40;10.65;;;;;;;-0.25;100.00;97900.31;2517608;29;20098;-88
2024/01/07 04:58:58;;;;;;;25.30;11.20;;;;;;;-0.35;100.00;97901.97;2523874;29;20397;-88
2024/01/07 05:00:14;;;;;;;11.60;6.25;;;;;;;-0.30;100.00;97904.56;2523084;29;20053;-88
2024/01/07 05:01:32;;;;;;;20.25;9.65;;;;;;;-0.60;100.00;97898.34;2522731;29;20465;-87
2024/01/07 05:02:48;;;;;;;17.27;7.57;;;;;;;-0.43;100.00;97894.19;2526137;29;20025;-88
2024/01/07 05:04:04;;;;;;;25.67;10.65;;;;;;;-0.31;100.00;97895.13;2511531;29;20101;-88
2024/01/07 05:05:20;;;;;;;21.40;10.05;;;;;;;-0.21;100.00;97904.63;2521393;29;20520;-88
2024/01/07 05:06:36;;;;;;;20.75;8.95;;;;;;;-0.60;100.00;97894.09;2532842;29;20135;-88
2024/01/07 05:07:52;;;;;;;21.50;9.98;;;;;;;-0.52;100.00;97904.44;2522549;29;20431;-88
2024/01/07 05:09:09;;;;;;;15.57;7.72;;;;;;;-0.56;100.00;97900.09;2516838;29;20037;-88
2024/01/07 05:10:24;;;;;;;21.08;8.93;;;;;;;-0.23;100.00;97898.63;2523624;29;20052;-88
2024/01/07 05:11:40;;;;;;;21.13;9.13;;;;;;;-0.27;100.00;97901.16;2523262;29;20514;-87
2024/01/07 05:13:04;;;;;;;23.33;9.65;;;;;;;-0.31;100.00;97898.56;2527061;29;20102;-88
2024/01/07 05:14:22;;;;;;;22.45;9.45;;;;;;;-0.45;100.00;97913.06;2533747;29;20049;-88
2024/01/07 05:15:38;;;;;;;20.35;9.52;;;;;;;-0.35;100.00;97901.97;2530058;29;20059;-88
2024/01/07 05:16:55;;;;;;;20.75;9.80;;;;;;;-0.06;100.00;97913.31;2526690;29;20065;-88
2024/01/07 05:18:11;;;;;;;19.25;9.68;;;;;;;-0.20;100.00;97926.09;2524091;29;20032;-88
2024/01/07 05:19:27;;;;;;;19.33;9.15;;;;;;;-0.30;100.00;97909.72;2516935;29;20562;-88
2024/01/07 05:20:43;;;;;;;21.30;9.02;;;;;;;-0.40;100.00;97913.09;2509116;29;20046;-88
2024/01/07 05:22:00;;;;;;;12.65;7.55;;;;;;;-0.48;100.00;97916.44;2512103;29;20590;-88
2024/01/07 05:23:17;;;;;;;18.73;9.70;;;;;;;-0.55;100.00;97912.13;2523173;29;20041;-88
2024/01/07 05:24:33;;;;;;;20.00;8.73;;;;;;;-0.34;100.00;97919.13;2517052;29;20135;-88
2024/01/07 05:25:49;;;;;;;17.98;8.57;;;;;;;-0.60;100.00;97911.22;2512971;29;20438;-88
2024/01/07 05:27:05;;;;;;;16.58;7.28;;;;;;;-0.57;100.00;97918.94;2504887;29;20045;-88
2024/01/07 05:28:22;;;;;;;21.15;7.35;;;;;;;-0.60;100.00;97926.63;2522881;29;20052;-88
2024/01/07 05:29:39;;;;;;;19.08;9.30;;;;;;;-0.40;100.00;97923.38;2521971;29;20127;-88
2024/01/07 05:30:55;;;;;;;21.88;9.25;;;;;;;-0.59;100.00;97918.06;2517498;29;20065;-90
2024/01/07 05:32:11;;;;;;;13.63;6.82;;;;;;;-0.22;100.00;97918.34;2517945;29;20061;-89
2024/01/07 05:33:27;;;;;;;16.98;7.72;;;;;;;-0.20;100.00;97920.94;2516781;29;20056;-88
2024/01/07 05:34:43;;;;;;;11.93;5.85;;;;;;;-0.29;100.00;97917.44;2507607;29;20109;-88
2024/01/07 05:35:59;;;;;;;18.10;8.23;;;;;;;-0.64;100.00;97922.31;2520866;29;20517;-88
2024/01/07 05:37:15;;;;;;;15.00;6.85;;;;;;;-0.48;100.00;97919.03;2522133;29;20061;-89
2024/01/07 05:38:31;;;;;;;22.55;9.70;;;;;;;-0.58;100.00;97925.81;2518403;29;20041;-88
2024/01/07 05:39:47;;;;;;;11.18;5.93;;;;;;;-0.56;100.00;97918.09;2525714;29;20112;-88
2024/01/07 05:41:04;;;;;;;20.05;8.55;;;;;;;-0.18;100.00;97919.25;2522896;29;20064;-87
2024/01/07 05:42:20;;;;;;;19.88;9.52;;;;;;;-0.22;100.00;97928.66;2526828;29;20793;-88
2024/01/07 05:43:37;;;;;;;20.67;9.07;;;;;;;-0.27;100.00;97927.75;2522270;29;20044;-88
2024/01/07 05:44:53;;;;;;;18.67;8.75;;;;;;;-0.20;100.00;97926.94;2516651;29;20088;-88
2024/01/07 05:46:10;;;;;;;19.75;9.02;;;;;;;-0.34;100.00;97925.97;2518576;29;20525;-89
2024/01/07 05:47:26;;;;;;;21.50;9.63;;;;;;;-0.33;100.00;97931.16;2524596;29;20132;-88
2024/01/07 05:48:47;;;;;;;15.02;8.07;;;;;;;-0.82;100.00;97931.59;2529746;29;20167;-88
2024/01/07 05:50:03;;;;;;;14.43;7.38;;;;;;;-0.89;100.00;97934.94;2534338;29;20064;-87
2024/01/07 05:51:19;;;;;;;11.27;5.60;;;;;;;-0.60;100.00;97932.66;2530107;29;20103;-88
2024/01/07 05:52:35;;;;;;;18.58;8.50;;;;;;;-0.64;100.00;97935.19;2531320;29;20060;-88